VLG9GE LEBL-EGKK
Flight info
| Callsign | VLG9GE |
|---|---|
| Flight time | N/A |
| Altitude | 34000 |
| Route | NATPI DCT EVNAM DCT AGN DCT SECHE DCT UVELI DCT CNA DCT MANAK DCT EPAPU UM184 EKRAS UT507 REVTU UP88 VASUX |
| Aircraft | A321/M-SDFGHILORVWXY/LB1 |
Departure
| Time | N/A |
|---|---|
| Airport | Josep Tarradellas Barcelona-El Prat Airport (LEBL) |
Arrival
| Time | 2026-05-07 14:51 |
|---|---|
| Airport | London Gatwick Airport (EGKK) |
| Time | Latitude | Longitude | Altitude | Speed | Heading |
|---|---|---|---|---|---|
| 2026-05-07 14:42 | 50.77573 | -0.38686 | 10242 ft | 322 kts | 274° |
| 2026-05-07 14:42 | 50.77875 | -0.42178 | 9182 ft | 321 kts | 284° |
| 2026-05-07 14:42 | 50.78861 | -0.45308 | 8140 ft | 320 kts | 308° |
| 2026-05-07 14:42 | 50.80521 | -0.47601 | 7110 ft | 317 kts | 331° |
| 2026-05-07 14:43 | 50.82580 | -0.48688 | 6303 ft | 307 kts | 354° |
| 2026-05-07 14:43 | 50.84604 | -0.48612 | 5991 ft | 297 kts | 7° |
| 2026-05-07 14:43 | 50.86620 | -0.48219 | 5805 ft | 285 kts | 7° |
| 2026-05-07 14:43 | 50.88569 | -0.47819 | 5083 ft | 279 kts | 8° |
| 2026-05-07 14:44 | 50.90449 | -0.47420 | 4569 ft | 268 kts | 8° |
| 2026-05-07 14:44 | 50.92270 | -0.47030 | 4107 ft | 262 kts | 8° |
| 2026-05-07 14:44 | 50.94078 | -0.46641 | 3752 ft | 262 kts | 8° |
| 2026-05-07 14:44 | 50.95878 | -0.46255 | 3368 ft | 259 kts | 8° |
| 2026-05-07 14:45 | 50.97627 | -0.45883 | 3043 ft | 249 kts | 8° |
| 2026-05-07 14:45 | 50.99298 | -0.45529 | 2995 ft | 235 kts | 8° |
| 2026-05-07 14:45 | 51.00877 | -0.45194 | 2998 ft | 225 kts | 8° |
| 2026-05-07 14:45 | 51.02424 | -0.44866 | 3002 ft | 224 kts | 8° |
| 2026-05-07 14:46 | 51.03973 | -0.44534 | 3000 ft | 225 kts | 8° |
| 2026-05-07 14:46 | 51.05522 | -0.44200 | 3001 ft | 225 kts | 8° |
| 2026-05-07 14:46 | 51.07034 | -0.43641 | 3006 ft | 224 kts | 21° |
| 2026-05-07 14:46 | 51.08470 | -0.42673 | 3025 ft | 217 kts | 25° |
| 2026-05-07 14:47 | 51.09787 | -0.41713 | 3020 ft | 199 kts | 25° |
| 2026-05-07 14:47 | 51.10957 | -0.40719 | 2841 ft | 188 kts | 38° |
| 2026-05-07 14:47 | 51.11811 | -0.39220 | 2614 ft | 172 kts | 60° |
| 2026-05-07 14:47 | 51.12236 | -0.37560 | 2413 ft | 155 kts | 79° |
| 2026-05-07 14:48 | 51.12452 | -0.36012 | 2209 ft | 148 kts | 79° |
| 2026-05-07 14:48 | 51.12675 | -0.34420 | 2018 ft | 146 kts | 79° |
| 2026-05-07 14:48 | 51.12895 | -0.32845 | 1813 ft | 145 kts | 80° |
| 2026-05-07 14:48 | 51.13114 | -0.31279 | 1619 ft | 145 kts | 80° |
| 2026-05-07 14:49 | 51.13331 | -0.29723 | 1421 ft | 143 kts | 81° |
| 2026-05-07 14:49 | 51.13545 | -0.28196 | 1180 ft | 139 kts | 79° |
| 2026-05-07 14:49 | 51.13754 | -0.26703 | 1039 ft | 137 kts | 79° |
| 2026-05-07 14:49 | 51.13957 | -0.25233 | 833 ft | 135 kts | 79° |
| 2026-05-07 14:50 | 51.14159 | -0.23783 | 674 ft | 134 kts | 79° |
| 2026-05-07 14:50 | 51.14359 | -0.22340 | 451 ft | 133 kts | 79° |
| 2026-05-07 14:50 | 51.14557 | -0.20906 | 283 ft | 133 kts | 79° |
| 2026-05-07 14:50 | 51.14742 | -0.19550 | 222 ft | 112 kts | 77° |
| 2026-05-07 14:51 | 51.14864 | -0.18665 | 215 ft | 29 kts | 74° |
| 2026-05-07 14:51 | 51.14930 | -0.18540 | 216 ft | 2 kts | 56° |
| 2026-05-07 14:51 | 51.14960 | -0.18473 | 219 ft | 9 kts | 52° |
| 2026-05-07 14:51 | 51.15003 | -0.18387 | 223 ft | 11 kts | 51° |
| 2026-05-07 14:52 | 51.15071 | -0.18252 | 215 ft | 20 kts | 52° |
| 2026-05-07 14:52 | 51.15138 | -0.18073 | 219 ft | 13 kts | 40° |
| 2026-05-07 14:52 | 51.15211 | -0.18057 | 215 ft | 10 kts | 41° |
| 2026-05-07 14:52 | 51.15234 | -0.17923 | 223 ft | 16 kts | 75° |
| 2026-05-07 14:53 | 51.15260 | -0.17728 | 223 ft | 21 kts | 80° |
| 2026-05-07 14:53 | 51.15293 | -0.17475 | 216 ft | 26 kts | 78° |
| 2026-05-07 14:53 | 51.15347 | -0.17374 | 217 ft | 6 kts | 346° |
| 2026-05-07 14:53 | 51.15422 | -0.17395 | 215 ft | 16 kts | 349° |
| 2026-05-07 14:54 | 51.15559 | -0.17440 | 215 ft | 24 kts | 347° |
| 2026-05-07 14:54 | 51.15733 | -0.17507 | 216 ft | 19 kts | 334° |
| 2026-05-07 14:54 | 51.15745 | -0.17598 | 225 ft | 11 kts | 259° |
| 2026-05-07 14:54 | 51.15729 | -0.17752 | 213 ft | 15 kts | 261° |
| 2026-05-07 14:55 | 51.15702 | -0.17921 | 219 ft | 16 kts | 257° |
| 2026-05-07 14:55 | 51.15740 | -0.18046 | 215 ft | 13 kts | 346° |
| 2026-05-07 14:55 | 51.15849 | -0.18081 | 215 ft | 19 kts | 348° |
| 2026-05-07 14:55 | 51.15988 | -0.18131 | 217 ft | 24 kts | 347° |
| 2026-05-07 14:56 | 51.16049 | -0.18095 | 216 ft | 7 kts | 88° |
| 2026-05-07 14:56 | 51.16055 | -0.18018 | 220 ft | 6 kts | 78° |
| 2026-05-07 14:56 | 51.16057 | -0.18000 | 217 ft | 0 kts | 78° |